Flight Track Log - Related Links

Times and Time Zones

All times are in EDT time to prevent confusion due to time zone crossing. See the ASA768 flight status page for this flight to view local times or setup timezone preferences in your user account.

Time Position Orientation Groundspeed Altitude Reporting Facility
EDT Latitude Longitude Course Direction KTS MPH feet Rate Location/Type
Sun 12:44:17 PM 32.7417 -117.2317 284° West 189 217 1,400  Level Los Angeles Center
Sun 12:45:19 PM 32.7567 -117.3025 284° West 214 246 3,300 1,984 Climbing Los Angeles Center
Sun 12:46:21 PM 32.6967 -117.3169 191° South 236 272 5,500 2,323 Climbing Los Angeles Center
Sun 12:47:23 PM 32.6511 -117.2542 131° Southeast 249 287 8,100 2,177 Climbing Los Angeles Center
Sun 12:48:25 PM 32.6389 -117.1636 99° East 272 313 10,000 2,016 Climbing Los Angeles Center
Sun 12:49:28 PM 32.6228 -117.0669 101° East 292 336 12,300 1,872 Climbing Los Angeles Center
Sun 12:50:30 PM 32.6144 -116.9322 94° East 340 391 13,900 1,645 Climbing Los Angeles Center
Sun 12:51:32 PM 32.6328 -116.8119 80° East 375 432 15,700 1,742 Climbing Los Angeles Center
Sun 12:52:34 PM 32.7272 -116.7419 32° Northeast 401 461 17,500 2,129 Climbing Los Angeles Center
Sun 12:53:36 PM 32.8300 -116.6775 28° Northeast 411 473 20,100 2,177 Climbing Los Angeles Center
Sun 12:54:38 PM 32.9308 -116.6122 29° Northeast 408 470 22,000 1,597 Climbing Los Angeles Center
Sun 12:55:40 PM 33.0361 -116.5450 28° Northeast 413 475 23,400 1,403 Climbing Los Angeles Center
Sun 12:56:42 PM 33.1447 -116.4742 29° Northeast 432 497 24,900 1,306 Climbing Los Angeles Center
Sun 12:57:44 PM 33.2536 -116.4025 29° Northeast 441 507 26,100 1,161 Climbing Los Angeles Center
Sun 12:58:46 PM 33.3908 -116.3144 28° Northeast 461 531 27,300 1,065 Climbing Los Angeles Center
Sun 12:59:48 PM 33.5081 -116.2383 28° Northeast 473 544 28,300 1,016 Climbing Los Angeles Center
Sun 01:00:50 PM 33.6244 -116.1556 31° Northeast 483 556 29,400 968 Climbing Los Angeles Center
Sun 01:01:52 PM 33.7156 -116.0319 48° Northeast 494 568 30,300 816 Climbing Los Angeles Center
Sun 01:02:55 PM 33.8033 -115.9053 50° Northeast 493 567 31,100 720 Climbing Los Angeles Center
Sun 01:03:57 PM 33.8931 -115.7725 51° Northeast 508 585 31,800 774 Climbing Los Angeles Center
Sun 01:04:59 PM 34.0017 -115.6122 51° Northeast 513 590 32,700 871 Climbing Los Angeles Center
Sun 01:06:01 PM 34.0942 -115.4764 51° Northeast 522 601 33,600 871 Climbing Los Angeles Center
Sun 01:07:03 PM 34.1864 -115.3411 50° Northeast 521 600 34,500 677 Climbing Los Angeles Center
Sun 01:08:05 PM 34.2775 -115.2047 51° Northeast 522 601 35,000 242 Climbing Los Angeles Center
Sun 01:09:07 PM 34.3686 -115.0697 51° Northeast 521 600 35,000  Level Los Angeles Center
Sun 01:10:09 PM 34.4586 -114.9339 51° Northeast 517 595 35,000  Level Los Angeles Center
Sun 01:11:11 PM 34.5653 -114.7764 51° Northeast 507 583 35,000  Level Los Angeles Center
Sun 01:12:13 PM 34.6542 -114.6433 51° Northeast 507 583 35,000  Level Los Angeles Center
Sun 01:13:16 PM 34.7342 -114.5203 52° Northeast 512 589 35,000  Level Los Angeles Center
Sun 01:14:18 PM 34.8717 -114.3969 36° Northeast 513 590 35,000  Level Los Angeles Center
Sun 01:15:20 PM 34.9964 -114.3078 30° Northeast 519 597 35,000  Level Los Angeles Center
Sun 01:16:22 PM 35.1208 -114.2189 30° Northeast 519 597 35,000  Level Los Angeles Center
Sun 01:17:24 PM 35.2450 -114.1303 30° Northeast 519 597 35,000  Level Los Angeles Center
Sun 01:18:26 PM 35.3692 -114.0392 31° Northeast 520 598 35,000  Level Los Angeles Center
Sun 01:19:28 PM 35.5147 -113.9342 30° Northeast 522 601 35,000  Level Los Angeles Center
Sun 01:20:30 PM 35.6403 -113.8433 30° Northeast 524 603 35,000  Level Los Angeles Center
Sun 01:21:32 PM 35.7697 -113.7486 31° Northeast 525 604 35,000  Level Los Angeles Center
Sun 01:22:34 PM 35.8947 -113.6567 31° Northeast 526 605 35,000  Level Los Angeles Center
Sun 01:23:37 PM 36.0208 -113.5633 31° Northeast 529 609 35,000  Level Los Angeles Center
Sun 01:24:39 PM 36.1469 -113.4703 31° Northeast 528 608 35,000  Level Los Angeles Center
Sun 01:25:41 PM 36.2975 -113.3572 31° Northeast 528 608 35,000  Level Los Angeles Center
Sun 01:26:43 PM 36.4228 -113.2642 31° Northeast 526 605 35,000  Level Los Angeles Center
Sun 01:27:45 PM 36.5428 -113.1747 31° Northeast 527 606 35,000  Level Los Angeles Center
Sun 01:28:47 PM 36.6658 -113.0819 31° Northeast 522 601 35,000  Level Los Angeles Center
Sun 01:29:49 PM 36.8156 -112.9708 31° Northeast 523 602 35,000  Level Los Angeles Center
Sun 01:30:51 PM 36.9383 -112.8778 31° Northeast 520 598 35,000  Level Los Angeles Center
Sun 01:31:53 PM 37.0611 -112.7850 31° Northeast 518 596 35,000  Level Los Angeles Center
Sun 01:32:55 PM 37.1825 -112.6922 31° Northeast 516 594 35,000  Level Los Angeles Center
Sun 01:33:57 PM 37.3036 -112.5992 31° Northeast 516 594 35,000  Level Los Angeles Center
Sun 01:35:00 PM 37.4497 -112.4872 31° Northeast 519 597 35,000  Level Los Angeles Center
Sun 01:36:02 PM 37.5711 -112.3933 32° Northeast 518 596 35,000  Level Los Angeles Center
Sun 01:36:57 PM 37.6903 -112.2953 33° Northeast 520 598 35,000  Level Salt Lake Center
Sun 01:37:59 PM 37.7778 -112.1519 52° Northeast 515 593 35,000  Level Salt Lake Center
Sun 01:39:01 PM 37.8625 -112.0050 54° Northeast 519 597 35,000  Level Salt Lake Center
Sun 01:40:03 PM 37.9486 -111.8572 54° Northeast 522 601 35,000  Level Salt Lake Center
Sun 01:41:05 PM 38.0344 -111.7083 54° Northeast 525 604 35,000  Level Salt Lake Center
Sun 01:42:07 PM 38.1203 -111.5575 54° Northeast 528 608 35,000  Level Salt Lake Center
Sun 01:43:09 PM 38.2236 -111.3756 54° Northeast 529 609 35,000  Level Salt Lake Center
Sun 01:44:11 PM 38.3083 -111.2228 55° Northeast 530 610 35,000  Level Salt Lake Center
Sun 01:45:13 PM 38.3933 -111.0736 54° Northeast 523 602 35,000  Level Salt Lake Center
Sun 01:46:15 PM 38.4839 -110.9081 55° Northeast 519 597 35,000  Level Salt Lake Center
Sun 01:47:17 PM 38.5625 -110.7672 54° Northeast 511 588 35,000  Level Salt Lake Center
Sun 01:48:19 PM 38.6528 -110.6025 55° Northeast 509 586 35,000  Level Salt Lake Center
Sun 01:49:21 PM 38.7308 -110.4619 55° Northeast 507 583 35,000  Level Salt Lake Center
Sun 01:50:23 PM 38.8083 -110.3197 55° Northeast 508 585 35,000  Level Salt Lake Center
Sun 01:51:25 PM 38.8972 -110.1544 55° Northeast 505 581 35,000  Level Salt Lake Center
Sun 01:52:27 PM 38.9739 -110.0131 55° Northeast 504 580 35,000  Level Salt Lake Center
Sun 01:53:30 PM 39.0622 -109.8503 55° Northeast 498 573 35,000  Level Salt Lake Center
Sun 01:54:32 PM 39.1378 -109.7103 55° Northeast 498 573 35,000  Level Salt Lake Center
Sun 01:55:34 PM 39.2250 -109.5475 55° Northeast 495 570 35,000  Level Salt Lake Center
Sun 01:56:36 PM 39.2989 -109.4072 56° Northeast 494 568 35,000  Level Salt Lake Center
Sun 01:57:27 PM 39.3483 -109.3114 56° Northeast 495 570 35,000  Level Denver Center
Sun 01:58:30 PM 39.4467 -109.1247 56° Northeast 493 567 35,000  Level Denver Center
Sun 01:59:32 PM 39.5333 -108.9611 55° Northeast 492 566 35,000  Level Denver Center
Sun 02:00:34 PM 39.6061 -108.8211 56° Northeast 490 564 35,000  Level Denver Center
Sun 02:01:36 PM 39.6919 -108.6578 56° Northeast 518 596 35,000  Level Denver Center
Sun 02:02:38 PM 39.7761 -108.4950 56° Northeast 491 565 35,000  Level Denver Center
Sun 02:03:40 PM 39.8517 -108.3519 55° Northeast 506 582 35,000  Level Denver Center
Sun 02:04:42 PM 39.9383 -108.1833 56° Northeast 500 575 35,000  Level Denver Center
Sun 02:05:44 PM 40.0083 -108.0397 57° Northeast 493 567 35,000  Level Denver Center
Sun 02:06:46 PM 40.0814 -107.8936 57° Northeast 500 575 35,000  Level Denver Center
Sun 02:07:49 PM 40.1578 -107.7183 60° Northeast 497 572 35,000  Level Denver Center
Sun 02:08:51 PM 40.2231 -107.5683 60° Northeast 496 571 35,000  Level Denver Center
Sun 02:09:53 PM 40.2997 -107.3936 60° Northeast 495 570 35,000  Level Denver Center
Sun 02:10:54 PM 40.3544 -107.2686 60° Northeast 496 571 35,000  Level Denver Center
Sun 02:11:57 PM 40.4403 -107.0678 61° Northeast 494 568 35,000  Level Denver Center
Sun 02:12:59 PM 40.5050 -106.9197 60° Northeast 495 570 35,000 -353 Level Denver Center
Sun 02:14:13 PM 40.5725 -106.7625 60° Northeast 495 570 34,200 -882 Descending Denver Center
Sun 02:15:15 PM 40.6528 -106.5733 61° Northeast 492 566 33,000 -581 Descending Denver Center
Sun 02:16:17 PM 40.7300 -106.3878 61° Northeast 494 568 33,000  Level Denver Center
Sun 02:17:20 PM 40.8011 -106.2214 61° Northeast 491 565 33,000  Level Denver Center
Sun 02:18:22 PM 40.8639 -106.0686 61° Northeast 495 570 33,000  Level Denver Center
Sun 02:19:24 PM 40.9292 -105.9106 61° Northeast 492 566 33,000  Level Denver Center
Sun 02:20:26 PM 40.9953 -105.7511 61° Northeast 493 567 33,000  Level Denver Center
Sun 02:21:28 PM 41.0722 -105.5603 62° Northeast 495 570 33,000  Level Denver Center
Sun 02:22:30 PM 41.1358 -105.4067 61° Northeast 498 573 33,000  Level Denver Center
Sun 02:23:32 PM 41.2092 -105.2247 62° Northeast 502 578 33,000  Level Denver Center
Sun 02:24:34 PM 41.2725 -105.0672 62° Northeast 505 581 33,000  Level Denver Center
Sun 02:25:36 PM 41.3456 -104.8828 62° Northeast 504 580 33,000  Level Denver Center
Sun 02:26:38 PM 41.4078 -104.7253 62° Northeast 505 581 33,000  Level Denver Center
Sun 02:27:40 PM 41.4814 -104.5467 61° Northeast 499 574 33,000  Level Denver Center
Sun 02:28:42 PM 41.5431 -104.3897 62° Northeast 500 575 33,000  Level Denver Center
Sun 02:29:44 PM 41.6144 -104.2042 63° Northeast 503 579 33,000  Level Denver Center
Sun 02:30:46 PM 41.6758 -104.0481 62° Northeast 500 575 33,000  Level Denver Center
Sun 02:31:49 PM 41.7469 -103.8642 63° Northeast 501 577 33,000  Level Denver Center
Sun 02:32:51 PM 41.8069 -103.7064 63° Northeast 498 573 33,000  Level Denver Center
Sun 02:33:53 PM 41.8781 -103.5217 63° Northeast 502 578 33,000  Level Denver Center
Sun 02:34:55 PM 41.9117 -103.3497 75° East 500 575 33,000  Level Denver Center
Sun 02:35:57 PM 41.9403 -103.1453 79° East 502 578 33,000  Level Denver Center
Sun 02:36:59 PM 41.9639 -102.9714 80° East 499 574 33,000  Level Denver Center
Sun 02:38:01 PM 41.9919 -102.7664 80° East 500 575 33,000  Level Denver Center
Sun 02:39:03 PM 42.0161 -102.5911 79° East 501 577 33,000  Level Denver Center
Sun 02:40:05 PM 42.0403 -102.4164 79° East 499 574 33,000  Level Denver Center
Sun 02:41:07 PM 42.0692 -102.2008 80° East 498 573 33,000  Level Denver Center
Sun 02:42:09 PM 42.0933 -102.0244 79° East 500 575 33,000  Level Denver Center
Sun 02:43:11 PM 42.1144 -101.8508 81° East 494 568 33,000  Level Denver Center
Sun 02:44:13 PM 42.1397 -101.6486 80° East 491 565 33,000  Level Denver Center
Sun 02:45:15 PM 42.1614 -101.4739 80° East 491 565 33,000  Level Denver Center
Sun 02:46:18 PM 42.1858 -101.2719 81° East 488 562 33,000  Level Denver Center
Sun 02:47:20 PM 42.2075 -101.0981 80° East 491 565 33,000  Level Denver Center
Sun 02:48:22 PM 42.2306 -100.8983 81° East 484 557 33,000  Level Denver Center
Sun 02:49:24 PM 42.2514 -100.7247 81° East 487 560 33,000  Level Denver Center
Sun 02:50:26 PM 42.2742 -100.5231 81° East 487 560 33,000  Level Denver Center
Sun 02:51:27 PM 42.2911 -100.3792 81° East 486 559 33,000  Level Denver Center
Sun 02:52:30 PM 42.3164 -100.1503 81° East 483 556 33,000  Level Denver Center
Sun 02:53:32 PM 42.3367 -99.9775 81° East 487 560 33,000  Level Denver Center
Sun 02:54:34 PM 42.3578 -99.7772 82° East 483 556 33,000  Level Denver Center
Sun 02:55:36 PM 42.3764 -99.6000 82° East 485 558 33,000  Level Denver Center
Sun 02:56:38 PM 42.3950 -99.4200 82° East 484 557 33,000  Level Denver Center
Sun 02:57:40 PM 42.4150 -99.2381 81° East 487 560 33,000 339 Level Denver Center
Sun 02:58:42 PM 42.4333 -99.0558 82° East 488 562 33,700 823 Climbing Denver Center
Sun 02:59:44 PM 42.4517 -98.8750 82° East 484 557 34,700 1,008 Climbing Denver Center
Sun 03:00:47 PM 42.4694 -98.6936 82° East 484 557 35,800 1,000 Climbing Denver Center
Sun 03:02:02 PM 42.4833 -98.4428 86° East 481 554 37,000 526 Climbing Minneapolis Center
Sun 03:03:04 PM 42.4919 -98.2664 86° East 475 547 37,000  Level Minneapolis Center
Sun 03:04:06 PM 42.5006 -98.0844 86° East 479 551 37,000  Level Minneapolis Center
Sun 03:05:20 PM 42.5078 -97.9033 87° East 480 552 37,000  Level Minneapolis Center
Sun 03:06:22 PM 42.5178 -97.6892 86° East 476 548 37,000  Level Minneapolis Center
Sun 03:07:24 PM 42.5244 -97.5083 87° East 479 551 37,000  Level Minneapolis Center
Sun 03:08:26 PM 42.5339 -97.2908 87° East 481 554 37,000  Level Minneapolis Center
Sun 03:09:29 PM 42.5403 -97.1117 87° East 479 551 37,000  Level Minneapolis Center
Sun 03:10:31 PM 42.5575 -96.9361 82° East 472 543 37,000  Level Minneapolis Center
Sun 03:11:33 PM 42.5775 -96.7617 81° East 468 539 37,000  Level Minneapolis Center
Sun 03:12:35 PM 42.5958 -96.5883 82° East 467 537 37,000  Level Minneapolis Center
Sun 03:13:37 PM 42.6142 -96.4156 82° East 464 534 37,000  Level Minneapolis Center
Sun 03:14:39 PM 42.6328 -96.2422 82° East 463 533 37,000  Level Minneapolis Center
Sun 03:15:41 PM 42.6536 -96.0328 82° East 465 535 37,000  Level Minneapolis Center
Sun 03:16:43 PM 42.6722 -95.8589 82° East 466 536 37,000  Level Minneapolis Center
Sun 03:17:45 PM 42.6892 -95.6808 83° East 470 541 37,000  Level Minneapolis Center
Sun 03:18:47 PM 42.7031 -95.5369 82° East 476 548 37,000  Level Minneapolis Center
Sun 03:19:50 PM 42.7239 -95.3225 82° East 476 548 37,000  Level Minneapolis Center
Sun 03:20:52 PM 42.7422 -95.1333 82° East 472 543 37,000  Level Minneapolis Center
Sun 03:22:06 PM 42.7586 -94.9531 83° East 480 552 37,000  Level Minneapolis Center
Sun 03:23:08 PM 42.7817 -94.6978 83° East 486 559 37,000  Level Minneapolis Center
Sun 03:24:10 PM 42.7961 -94.5450 83° East 489 563 37,000  Level Minneapolis Center
Sun 03:25:12 PM 42.8156 -94.3303 83° East 482 555 37,000  Level Minneapolis Center
Sun 03:26:26 PM 42.8294 -94.1500 84° East 485 558 37,000  Level Minneapolis Center
Sun 03:27:29 PM 42.8475 -93.9339 83° East 483 556 37,000  Level Minneapolis Center
Sun 03:28:31 PM 42.8619 -93.7533 84° East 483 556 37,000  Level Minneapolis Center
Sun 03:30:35 PM 42.8944 -93.3572 83° East 482 555 37,000  Level Minneapolis Center
Sun 03:31:37 PM 42.9092 -93.1775 84° East 482 555 37,000  Level Minneapolis Center
Sun 03:32:39 PM 42.9225 -92.9958 84° East 485 558 37,000  Level Minneapolis Center
Sun 03:33:41 PM 42.9358 -92.8139 84° East 486 559 37,000  Level Minneapolis Center
Sun 03:34:44 PM 42.9494 -92.6308 84° East 488 562 37,000  Level Minneapolis Center
Sun 03:35:46 PM 42.9647 -92.4089 85° East 492 566 37,000  Level Minneapolis Center
Sun 03:36:48 PM 42.9783 -92.2250 84° East 490 564 37,000  Level Minneapolis Center
Sun 03:37:50 PM 42.9906 -92.0414 85° East 489 563 37,000  Level Minneapolis Center
Sun 03:38:52 PM 43.0039 -91.8564 84° East 489 563 37,000  Level Minneapolis Center
Sun 03:39:54 PM 43.0167 -91.6703 85° East 490 564 37,000  Level Minneapolis Center
Sun 03:40:56 PM 43.0264 -91.5214 85° East 488 562 37,000  Level Minneapolis Center
Sun 03:41:58 PM 43.0403 -91.2633 86° East 486 559 37,000  Level Minneapolis Center
Sun 03:42:54 PM 43.0492 -91.1169 85° East 488 562 37,000  Level Chicago Center
Sun 03:43:56 PM 43.0614 -90.8972 86° East 488 562 37,000  Level Chicago Center
Sun 03:44:58 PM 43.0717 -90.7153 86° East 485 558 37,000  Level Chicago Center
Sun 03:46:00 PM 43.0808 -90.5333 86° East 484 557 37,000  Level Chicago Center
Sun 03:47:03 PM 43.0908 -90.3522 86° East 482 555 37,000  Level Chicago Center
Sun 03:48:05 PM 43.1008 -90.1733 86° East 479 551 37,000  Level Chicago Center
Sun 03:49:07 PM 43.1106 -89.9575 86° East 479 551 37,000  Level Chicago Center
Sun 03:50:09 PM 43.1183 -89.7764 87° East 476 548 37,000  Level Chicago Center
Sun 03:51:11 PM 43.1264 -89.5928 86° East 481 554 37,000  Level Chicago Center
Sun 03:52:13 PM 43.1336 -89.4106 87° East 482 555 37,000  Level Chicago Center
Sun 03:53:16 PM 43.1406 -89.2272 87° East 485 558 37,000  Level Chicago Center
Sun 03:54:17 PM 43.1503 -89.0133 86° East 484 557 37,000  Level Chicago Center
Sun 03:55:19 PM 43.1572 -88.8314 87° East 480 552 37,000  Level Chicago Center
Sun 03:56:21 PM 43.1633 -88.6539 87° East 473 544 37,000  Level Chicago Center
Sun 03:57:23 PM 43.1697 -88.4750 87° East 475 547 37,000  Level Chicago Center
Sun 03:58:25 PM 43.1769 -88.2672 87° East 472 543 37,000  Level Chicago Center
Sun 03:59:27 PM 43.1839 -88.0894 87° East 472 543 37,000  Level Chicago Center
Sun 04:00:29 PM 43.1900 -87.9097 87° East 473 544 37,000  Level Chicago Center
Sun 04:01:32 PM 43.1942 -87.7272 88° East 480 552 37,000  Level Chicago Center
Sun 04:02:34 PM 43.1997 -87.5447 88° East 481 554 37,000  Level Chicago Center
Sun 04:03:36 PM 43.2050 -87.3617 88° East 482 555 37,000  Level Chicago Center
Sun 04:04:38 PM 43.2108 -87.1456 88° East 482 555 37,000  Level Chicago Center
Sun 04:05:40 PM 43.2142 -86.9650 88° East 477 549 37,000  Level Chicago Center
Sun 04:06:42 PM 43.2189 -86.7831 88° East 478 550 37,000  Level Chicago Center
Sun 04:07:44 PM 43.2231 -86.6022 88° East 476 548 37,000  Level Chicago Center
Sun 04:08:46 PM 43.2264 -86.4186 89° East 473 544 37,000  Level Chicago Center
Sun 04:09:48 PM 43.2308 -86.2403 88° East 474 545 37,000  Level Chicago Center
Sun 04:10:50 PM 43.2344 -86.0567 88° East 475 547 37,000  Level Chicago Center
Sun 04:11:52 PM 43.2358 -85.8328 89° East 479 551 37,000  Level Chicago Center
Sun 04:12:54 PM 43.2378 -85.6506 89° East 474 545 37,000  Level Chicago Center
Sun 04:13:56 PM 43.2389 -85.4703 89° East 470 541 37,000  Level Chicago Center
Sun 04:14:58 PM 43.2400 -85.2931 89° East 467 537 37,000  Level Chicago Center
Sun 04:16:01 PM 43.2419 -85.1150 89° East 466 536 37,000  Level Chicago Center
Sun 04:17:03 PM 43.2422 -84.9361 90° East 469 540 37,000  Level Chicago Center
Sun 04:18:05 PM 43.2433 -84.7586 89° East 465 535 37,000  Level Chicago Center
Sun 04:19:07 PM 43.2431 -84.5447 90° East 468 539 37,000  Level Chicago Center
Sun 04:20:18 PM 43.2431 -84.3308 90° East 467 537 37,000  Level Cleveland Center
Sun 04:21:20 PM 43.2433 -84.1522 90° East 468 539 37,000  Level Cleveland Center
Sun 04:22:22 PM 43.2408 -83.9767 91° East 464 534 37,000  Level Cleveland Center
Sun 04:23:24 PM 43.2400 -83.8128 90° East 458 527 37,000  Level Cleveland Center
Sun 04:24:26 PM 43.2394 -83.6400 90° East 454 522 37,000  Level Cleveland Center
Sun 04:25:28 PM 43.2375 -83.4317 91° East 455 524 37,000  Level Cleveland Center
Sun 04:26:30 PM 43.2358 -83.2575 91° East 456 525 37,000  Level Cleveland Center
Sun 04:27:32 PM 43.2328 -83.0836 91° East 455 524 37,000  Level Cleveland Center
Sun 04:28:35 PM 43.2311 -82.9103 91° East 455 524 37,000  Level Cleveland Center
Sun 04:29:37 PM 43.2294 -82.7392 91° East 451 519 37,000  Level Cleveland Center
Sun 04:30:39 PM 43.2264 -82.5667 91° East 453 521 37,000  Level Cleveland Center
Sun 04:31:41 PM 43.2222 -82.3581 91° East 457 526 37,000  Level Cleveland Center
Sun 04:32:31 PM 43.2200 -82.2211 91° East 453 521 37,000  Level Cleveland Center
Sun 04:33:33 PM 43.2158 -82.0486 92° East 451 519 37,000  Level Cleveland Center
Sun 04:34:35 PM 43.2128 -81.8767 91° East 453 521 37,000  Level Cleveland Center
Sun 04:35:31 PM 43.2000 -81.6833 95° East 450 518 37,000  Level Toronto Center
Sun 04:36:31 PM 43.2000 -81.5333 90° East 450 518 37,000  Level Toronto Center
Sun 04:37:31 PM 43.1833 -81.3500 97° East 450 518 37,000  Level Toronto Center
Sun 04:38:31 PM 43.1833 -81.1667 90° East 450 518 37,000  Level Toronto Center
Sun 04:39:31 PM 43.1667 -81.0000 98° East 450 518 37,000  Level Toronto Center
Sun 04:40:31 PM 43.1667 -80.8500 90° East 440 506 37,000  Level Toronto Center
Sun 04:41:31 PM 43.1833 -80.6667 83° East 440 506 37,000  Level Toronto Center
Sun 04:42:31 PM 43.1667 -80.5000 98° East 440 506 37,000  Level Toronto Center
Sun 04:43:31 PM 43.1667 -80.3167 90° East 450 518 37,000  Level Toronto Center
Sun 04:44:31 PM 43.1500 -80.1667 99° East 440 506 37,000  Level Toronto Center
Sun 04:45:31 PM 43.1500 -80.0000 90° East 450 518 37,000 -350 Level Toronto Center
Sun 04:46:31 PM 43.1333 -79.8167 97° East 440 506 36,300 -800 Descending Toronto Center
Sun 04:47:31 PM 43.1333 -79.6500 90° East 450 518 35,400 -650 Descending Toronto Center
Sun 04:48:31 PM 43.1333 -79.4667 90° East 450 518 35,000 -200 Descending Toronto Center
Sun 04:49:31 PM 43.1167 -79.3167 99° East 460 529 35,000  Level Toronto Center
Sun 04:50:31 PM 43.1167 -79.1333 90° East 460 529 35,000  Level Toronto Center
Sun 04:51:31 PM 43.1000 -78.9667 98° East 460 529 35,000  Level Toronto Center
Sun 04:52:31 PM 43.1000 -78.7833 90° East 460 529 35,000  Level Toronto Center
Sun 04:53:12 PM 43.0992 -78.7125 91° East 457 526 35,000  Level Cleveland Center
Sun 04:54:15 PM 43.0883 -78.5067 94° East 453 521 35,000  Level Cleveland Center
Sun 04:55:17 PM 43.0794 -78.3381 94° East 446 513 35,000  Level Cleveland Center
Sun 04:56:19 PM 43.0700 -78.1664 94° East 453 521 35,000  Level Cleveland Center
Sun 04:57:21 PM 43.0608 -77.9942 94° East 452 520 35,000  Level Cleveland Center
Sun 04:58:23 PM 43.0506 -77.8225 95° East 451 519 35,000  Level Cleveland Center
Sun 04:59:25 PM 43.0408 -77.6500 94° East 453 521 35,000  Level Cleveland Center
Sun 05:00:27 PM 43.0308 -77.4792 95° East 450 518 35,000  Level Cleveland Center
Sun 05:01:29 PM 43.0175 -77.2731 95° East 452 520 35,000  Level Cleveland Center
Sun 05:02:31 PM 43.0064 -77.1036 95° East 448 516 35,000  Level Cleveland Center
Sun 05:03:33 PM 42.9961 -76.9336 95° East 449 517 35,000  Level Cleveland Center
Sun 05:04:35 PM 42.9839 -76.7644 96° East 448 516 35,000  Level Cleveland Center
Sun 05:05:28 PM 42.9744 -76.6094 95° East 448 516 35,000  Level Boston Center
Sun 05:06:28 PM 42.9653 -76.4556 95° East 448 516 35,000 -458 Level Boston Center
Sun 05:07:26 PM 42.9525 -76.2814 96° East 453 521 34,100 -915 Descending Boston Center
Sun 05:08:26 PM 42.9014 -76.1222 114° Southeast 446 513 33,200 -545 Descending Boston Center
Sun 05:09:27 PM 42.8078 -75.9864 133° Southeast 467 537 33,000 -98 Descending Boston Center
Sun 05:10:28 PM 42.7061 -75.8364 133° Southeast 473 544 33,000  Level Boston Center
Sun 05:11:26 PM 42.6183 -75.7019 132° Southeast 478 550 33,000  Level Boston Center
Sun 05:12:27 PM 42.5664 -75.5414 114° Southeast 469 540 33,000  Level Boston Center
Sun 05:13:28 PM 42.5936 -75.3789 77° East 411 473 33,000  Level Boston Center
Sun 05:14:28 PM 42.6817 -75.2814 39° Northeast 353 406 33,000  Level Boston Center
Sun 05:15:28 PM 42.7872 -75.2269 21° North 365 420 33,000  Level Boston Center
Sun 05:16:26 PM 42.8628 -75.1169 47° Northeast 380 437 33,000  Level Boston Center
Sun 05:17:28 PM 42.8564 -74.9439 93° East 384 442 33,000  Level Boston Center
Sun 05:18:26 PM 42.8392 -74.7678 98° East 415 478 33,000  Level Boston Center
Sun 05:19:26 PM 42.8239 -74.5972 97° East 442 509 33,000  Level Boston Center
Sun 05:20:27 PM 42.8061 -74.4267 98° East 454 522 33,000 -443 Level Boston Center
Sun 05:21:28 PM 42.7903 -74.2536 97° East 454 522 32,100 -942 Descending Boston Center
Sun 05:22:28 PM 42.7742 -74.0778 97° East 454 522 31,100 -1,000 Descending Boston Center
Sun 05:23:28 PM 42.7556 -73.9106 99° East 454 522 30,100 -1,017 Descending Boston Center
Sun 05:24:26 PM 42.7369 -73.7406 98° East 454 522 29,100 -555 Descending Boston Center
Sun 05:25:27 PM 42.7239 -73.5761 96° East 448 516 29,000 -49 Descending Boston Center
Sun 05:26:28 PM 42.7069 -73.4092 98° East 448 516 29,000 -496 Level Boston Center
Sun 05:27:28 PM 42.6894 -73.2450 98° East 448 516 28,000 -1,000 Descending Boston Center
Sun 05:28:28 PM 42.6736 -73.0867 98° East 437 503 27,000 -1,017 Descending Boston Center
Sun 05:29:26 PM 42.6558 -72.9256 98° East 425 489 26,000 -1,008 Descending Boston Center
Sun 05:30:27 PM 42.6353 -72.7817 101° East 413 475 25,000 -942 Descending Boston Center
Sun 05:31:27 PM 42.6231 -72.6603 98° East 405 466 24,100 -1,339 Descending Boston Center
Sun 05:32:28 PM 42.6006 -72.4825 100° East 387 445 22,300 -1,815 Descending Boston Center
Sun 05:33:26 PM 42.5839 -72.3414 99° East 387 445 20,500 -1,664 Descending Boston Center
Sun 05:34:27 PM 42.5650 -72.2286 103° East 381 438 19,000 -1,636 Descending Boston Center
Sun 05:35:27 PM 42.5478 -72.0794 99° East 365 420 17,200 -1,750 Descending Boston Center
Sun 05:36:27 PM 42.5369 -71.9583 97° East 365 420 15,500 -1,815 Descending Boston Center
Sun 05:37:26 PM 42.5217 -71.8092 98° East 360 414 13,600 -1,714 Descending Boston Center
Sun 05:38:26 PM 42.5125 -71.6964 96° East 348 400 12,100 -1,279 Descending Boston Center
Sun 05:39:28 PM 42.5000 -71.5500 97° East 318 366 11,000 -757 Descending KA90
Sun 05:40:17 PM 42.4833 -71.4667 105° East 280 322 10,700 -793 Descending KA90
Sun 05:41:29 PM 42.4833 -71.3500 90° East 264 304 9,400 -1,136 Descending KA90
Sun 05:42:29 PM 42.4667 -71.2500 103° East 261 300 8,200 -1,150 Descending KA90
Sun 05:43:29 PM 42.4667 -71.1500 90° East 255 293 7,100 -1,043 Descending KA90
Sun 05:44:24 PM 42.4500 -71.0667 105° East 250 288 6,200 -579 Descending KA90
Sun 05:45:23 PM 42.4500 -70.9833 90° East 242 278 6,000 -526 Descending KA90
Sun 05:46:18 PM 42.4667 -70.9000 75° East 247 284 5,200 -947 Descending KA90
Sun 05:47:17 PM 42.4833 -70.8167 75° East 243 280 4,200 -977 Descending KA90
Sun 05:48:27 PM 42.4853 -70.7200 88° East 223 257 3,100 -554 Descending Boston Center
Sun 05:49:27 PM 42.4331 -70.7072 170° South 163 188 3,000 -50 Descending Boston Center
Sun 05:50:28 PM 42.4044 -70.7503 228° Southwest 116 133 3,000 -248 Level Boston Center
Sun 05:51:28 PM 42.3928 -70.8097 255° West 121 139 2,500 -632 Descending Boston Center
Sun 05:53:19 PM 42.3667 -70.9167 252° West 135 155 1,200 -702 Descending KA90
Sun 05:54:19 PM 42.3667 -70.9500 270° West 130 150 500 -700 Descending KA90
Sun 05:56:00 PM 42.3500 -71.0000 253° West  Level FlightAware Approximate
Sun 06:03:00 PM 42.3630 -71.0064 253° West  Level Estimated

Login

Don't have an account? Register now (free) for customized features, flight alerts, and more!